sensor_id;sensor_type;location;lat;lon;timestamp;P1;durP1;ratioP1;P2;durP2;ratioP2
53903;SDS011;39812;52.430;16.936;2023-09-18T00:00:46;13.10;;;9.88;;
53903;SDS011;39812;52.430;16.936;2023-09-18T00:03:14;13.90;;;9.05;;
53903;SDS011;39812;52.430;16.936;2023-09-18T00:05:42;13.32;;;8.82;;
53903;SDS011;39812;52.430;16.936;2023-09-18T00:08:08;16.42;;;9.05;;
53903;SDS011;39812;52.430;16.936;2023-09-18T00:10:34;12.27;;;8.38;;
53903;SDS011;39812;52.430;16.936;2023-09-18T00:13:00;12.73;;;9.30;;
53903;SDS011;39812;52.430;16.936;2023-09-18T00:15:26;14.45;;;8.65;;
53903;SDS011;39812;52.430;16.936;2023-09-18T00:17:52;15.23;;;9.90;;
53903;SDS011;39812;52.430;16.936;2023-09-18T00:20:17;12.38;;;8.70;;
53903;SDS011;39812;52.430;16.936;2023-09-18T00:22:43;14.85;;;9.50;;
53903;SDS011;39812;52.430;16.936;2023-09-18T00:25:09;15.77;;;10.20;;
53903;SDS011;39812;52.430;16.936;2023-09-18T00:27:35;13.48;;;9.18;;
53903;SDS011;39812;52.430;16.936;2023-09-18T00:30:04;14.65;;;10.05;;
53903;SDS011;39812;52.430;16.936;2023-09-18T00:32:30;13.07;;;8.52;;
53903;SDS011;39812;52.430;16.936;2023-09-18T00:34:55;15.68;;;10.00;;
53903;SDS011;39812;52.430;16.936;2023-09-18T00:37:21;14.93;;;10.20;;
53903;SDS011;39812;52.430;16.936;2023-09-18T00:39:47;16.80;;;11.20;;
53903;SDS011;39812;52.430;16.936;2023-09-18T00:42:14;16.17;;;10.63;;
53903;SDS011;39812;52.430;16.936;2023-09-18T00:44:42;14.88;;;10.40;;
53903;SDS011;39812;52.430;16.936;2023-09-18T00:47:08;17.92;;;11.52;;
53903;SDS011;39812;52.430;16.936;2023-09-18T00:49:35;14.68;;;10.63;;
53903;SDS011;39812;52.430;16.936;2023-09-18T00:52:03;17.05;;;9.93;;
53903;SDS011;39812;52.430;16.936;2023-09-18T00:54:29;15.52;;;10.48;;
53903;SDS011;39812;52.430;16.936;2023-09-18T00:56:56;14.68;;;9.95;;
53903;SDS011;39812;52.430;16.936;2023-09-18T00:59:22;14.38;;;10.13;;
53903;SDS011;39812;52.430;16.936;2023-09-18T01:01:48;15.50;;;11.10;;
53903;SDS011;39812;52.430;16.936;2023-09-18T01:04:19;17.65;;;10.80;;
53903;SDS011;39812;52.430;16.936;2023-09-18T01:06:44;14.82;;;10.38;;
53903;SDS011;39812;52.430;16.936;2023-09-18T01:09:12;13.55;;;9.98;;
53903;SDS011;39812;52.430;16.936;2023-09-18T01:11:47;13.40;;;9.90;;
53903;SDS011;39812;52.430;16.936;2023-09-18T01:14:37;14.88;;;9.90;;
53903;SDS011;39812;52.430;16.936;2023-09-18T01:17:11;17.63;;;10.60;;
53903;SDS011;39812;52.430;16.936;2023-09-18T01:19:39;14.43;;;9.60;;
53903;SDS011;39812;52.430;16.936;2023-09-18T01:22:12;15.32;;;9.98;;
53903;SDS011;39812;52.430;16.936;2023-09-18T01:24:40;14.27;;;9.63;;
53903;SDS011;39812;52.430;16.936;2023-09-18T01:27:13;15.55;;;10.57;;
53903;SDS011;39812;52.430;16.936;2023-09-18T01:29:46;14.70;;;9.95;;
53903;SDS011;39812;52.430;16.936;2023-09-18T01:32:13;13.95;;;10.27;;
53903;SDS011;39812;52.430;16.936;2023-09-18T01:34:41;14.07;;;10.07;;
53903;SDS011;39812;52.430;16.936;2023-09-18T01:37:12;16.10;;;10.60;;
53903;SDS011;39812;52.430;16.936;2023-09-18T01:39:39;14.05;;;9.98;;
53903;SDS011;39812;52.430;16.936;2023-09-18T01:42:06;14.35;;;10.60;;
53903;SDS011;39812;52.430;16.936;2023-09-18T01:44:34;16.67;;;10.18;;
53903;SDS011;39812;52.430;16.936;2023-09-18T01:47:02;14.20;;;10.68;;
53903;SDS011;39812;52.430;16.936;2023-09-18T01:49:31;15.57;;;11.20;;
53903;SDS011;39812;52.430;16.936;2023-09-18T01:52:00;18.17;;;12.05;;
53903;SDS011;39812;52.430;16.936;2023-09-18T01:54:26;18.05;;;12.85;;
53903;SDS011;39812;52.430;16.936;2023-09-18T01:56:52;18.08;;;11.95;;
53903;SDS011;39812;52.430;16.936;2023-09-18T01:59:18;19.65;;;12.60;;
53903;SDS011;39812;52.430;16.936;2023-09-18T02:01:45;20.30;;;12.18;;
53903;SDS011;39812;52.430;16.936;2023-09-18T02:04:11;26.38;;;13.95;;
53903;SDS011;39812;52.430;16.936;2023-09-18T02:06:36;21.52;;;13.35;;
53903;SDS011;39812;52.430;16.936;2023-09-18T02:09:02;19.98;;;11.75;;
53903;SDS011;39812;52.430;16.936;2023-09-18T02:11:33;17.48;;;11.82;;
53903;SDS011;39812;52.430;16.936;2023-09-18T02:14:01;18.75;;;12.35;;
53903;SDS011;39812;52.430;16.936;2023-09-18T02:16:29;19.90;;;11.75;;
53903;SDS011;39812;52.430;16.936;2023-09-18T02:18:54;16.83;;;10.90;;
53903;SDS011;39812;52.430;16.936;2023-09-18T02:21:23;17.50;;;11.27;;
53903;SDS011;39812;52.430;16.936;2023-09-18T02:23:49;18.48;;;11.68;;
53903;SDS011;39812;52.430;16.936;2023-09-18T02:26:18;18.42;;;12.02;;
53903;SDS011;39812;52.430;16.936;2023-09-18T02:28:45;19.52;;;11.52;;
53903;SDS011;39812;52.430;16.936;2023-09-18T02:31:11;16.25;;;10.75;;
53903;SDS011;39812;52.430;16.936;2023-09-18T02:33:37;20.92;;;12.35;;
53903;SDS011;39812;52.430;16.936;2023-09-18T02:36:02;19.77;;;11.98;;
53903;SDS011;39812;52.430;16.936;2023-09-18T02:38:28;20.65;;;13.43;;
53903;SDS011;39812;52.430;16.936;2023-09-18T02:40:57;23.48;;;14.15;;
53903;SDS011;39812;52.430;16.936;2023-09-18T02:43:23;21.60;;;12.80;;
53903;SDS011;39812;52.430;16.936;2023-09-18T02:45:49;20.65;;;13.98;;
53903;SDS011;39812;52.430;16.936;2023-09-18T02:48:15;21.92;;;13.50;;
53903;SDS011;39812;52.430;16.936;2023-09-18T02:50:41;21.58;;;14.43;;
53903;SDS011;39812;52.430;16.936;2023-09-18T02:53:07;22.52;;;14.57;;
53903;SDS011;39812;52.430;16.936;2023-09-18T02:55:42;23.83;;;14.98;;
53903;SDS011;39812;52.430;16.936;2023-09-18T02:58:08;24.05;;;15.93;;
53903;SDS011;39812;52.430;16.936;2023-09-18T03:00:35;20.63;;;14.70;;
53903;SDS011;39812;52.430;16.936;2023-09-18T03:03:07;21.75;;;14.68;;
53903;SDS011;39812;52.430;16.936;2023-09-18T03:05:33;23.08;;;15.95;;
53903;SDS011;39812;52.430;16.936;2023-09-18T03:07:58;23.55;;;14.25;;
53903;SDS011;39812;52.430;16.936;2023-09-18T03:10:24;23.55;;;14.90;;
53903;SDS011;39812;52.430;16.936;2023-09-18T03:12:50;20.88;;;15.10;;
53903;SDS011;39812;52.430;16.936;2023-09-18T03:15:15;25.23;;;14.95;;
53903;SDS011;39812;52.430;16.936;2023-09-18T03:17:41;24.65;;;14.65;;
53903;SDS011;39812;52.430;16.936;2023-09-18T03:20:07;21.98;;;15.73;;
53903;SDS011;39812;52.430;16.936;2023-09-18T03:22:34;25.08;;;16.00;;
53903;SDS011;39812;52.430;16.936;2023-09-18T03:25:00;24.45;;;15.63;;
53903;SDS011;39812;52.430;16.936;2023-09-18T03:27:25;21.83;;;14.88;;
53903;SDS011;39812;52.430;16.936;2023-09-18T03:29:57;23.58;;;15.27;;
53903;SDS011;39812;52.430;16.936;2023-09-18T03:32:23;21.75;;;14.82;;
53903;SDS011;39812;52.430;16.936;2023-09-18T03:34:51;26.95;;;15.48;;
53903;SDS011;39812;52.430;16.936;2023-09-18T03:37:17;22.63;;;15.20;;
53903;SDS011;39812;52.430;16.936;2023-09-18T03:39:43;25.15;;;15.82;;
53903;SDS011;39812;52.430;16.936;2023-09-18T03:42:09;27.15;;;16.85;;
53903;SDS011;39812;52.430;16.936;2023-09-18T03:44:35;23.85;;;16.40;;
53903;SDS011;39812;52.430;16.936;2023-09-18T03:47:01;21.88;;;15.65;;
53903;SDS011;39812;52.430;16.936;2023-09-18T03:49:28;22.70;;;16.83;;
53903;SDS011;39812;52.430;16.936;2023-09-18T03:51:54;26.58;;;16.48;;
53903;SDS011;39812;52.430;16.936;2023-09-18T03:54:20;24.10;;;15.82;;
53903;SDS011;39812;52.430;16.936;2023-09-18T03:56:45;25.95;;;17.13;;
53903;SDS011;39812;52.430;16.936;2023-09-18T03:59:11;24.05;;;16.60;;
53903;SDS011;39812;52.430;16.936;2023-09-18T04:01:37;23.13;;;16.52;;
53903;SDS011;39812;52.430;16.936;2023-09-18T04:04:03;26.25;;;16.60;;
53903;SDS011;39812;52.430;16.936;2023-09-18T04:06:36;29.85;;;16.77;;
53903;SDS011;39812;52.430;16.936;2023-09-18T04:09:06;24.27;;;16.65;;
53903;SDS011;39812;52.430;16.936;2023-09-18T04:11:31;25.17;;;16.73;;
53903;SDS011;39812;52.430;16.936;2023-09-18T04:13:58;26.95;;;16.33;;
53903;SDS011;39812;52.430;16.936;2023-09-18T04:16:26;24.23;;;16.20;;
53903;SDS011;39812;52.430;16.936;2023-09-18T04:18:53;24.38;;;15.77;;
53903;SDS011;39812;52.430;16.936;2023-09-18T04:21:19;23.52;;;16.23;;
53903;SDS011;39812;52.430;16.936;2023-09-18T04:23:46;25.05;;;17.15;;
53903;SDS011;39812;52.430;16.936;2023-09-18T04:26:12;23.95;;;16.80;;
53903;SDS011;39812;52.430;16.936;2023-09-18T04:28:41;22.85;;;16.17;;
53903;SDS011;39812;52.430;16.936;2023-09-18T04:31:07;25.70;;;17.52;;
53903;SDS011;39812;52.430;16.936;2023-09-18T04:33:32;24.88;;;16.63;;
53903;SDS011;39812;52.430;16.936;2023-09-18T04:35:58;22.60;;;15.95;;
53903;SDS011;39812;52.430;16.936;2023-09-18T04:38:24;22.17;;;15.75;;
53903;SDS011;39812;52.430;16.936;2023-09-18T04:40:49;24.50;;;17.50;;
53903;SDS011;39812;52.430;16.936;2023-09-18T04:43:22;22.13;;;15.38;;
53903;SDS011;39812;52.430;16.936;2023-09-18T04:45:48;22.17;;;15.73;;
53903;SDS011;39812;52.430;16.936;2023-09-18T04:48:14;23.20;;;15.30;;
53903;SDS011;39812;52.430;16.936;2023-09-18T04:50:39;25.23;;;15.80;;
53903;SDS011;39812;52.430;16.936;2023-09-18T04:53:05;24.13;;;16.95;;
53903;SDS011;39812;52.430;16.936;2023-09-18T04:55:31;22.30;;;15.60;;
53903;SDS011;39812;52.430;16.936;2023-09-18T04:57:56;24.02;;;15.18;;
53903;SDS011;39812;52.430;16.936;2023-09-18T05:00:23;24.40;;;16.02;;
53903;SDS011;39812;52.430;16.936;2023-09-18T05:02:51;21.65;;;15.52;;
53903;SDS011;39812;52.430;16.936;2023-09-18T05:05:17;24.17;;;16.52;;
53903;SDS011;39812;52.430;16.936;2023-09-18T05:07:43;25.27;;;15.68;;
53903;SDS011;39812;52.430;16.936;2023-09-18T05:10:09;23.08;;;15.73;;
53903;SDS011;39812;52.430;16.936;2023-09-18T05:12:35;19.75;;;15.23;;
53903;SDS011;39812;52.430;16.936;2023-09-18T05:15:02;23.55;;;15.27;;
53903;SDS011;39812;52.430;16.936;2023-09-18T05:17:39;25.80;;;14.95;;
53903;SDS011;39812;52.430;16.936;2023-09-18T05:20:07;28.60;;;15.18;;
53903;SDS011;39812;52.430;16.936;2023-09-18T05:22:34;20.77;;;15.05;;
53903;SDS011;39812;52.430;16.936;2023-09-18T05:25:00;20.35;;;14.48;;
53903;SDS011;39812;52.430;16.936;2023-09-18T05:27:26;21.92;;;14.75;;
53903;SDS011;39812;52.430;16.936;2023-09-18T05:29:52;19.65;;;14.98;;
53903;SDS011;39812;52.430;16.936;2023-09-18T05:32:17;16.73;;;13.02;;
53903;SDS011;39812;52.430;16.936;2023-09-18T05:34:43;18.63;;;13.80;;
53903;SDS011;39812;52.430;16.936;2023-09-18T05:37:08;21.25;;;13.75;;
53903;SDS011;39812;52.430;16.936;2023-09-18T05:39:34;17.92;;;13.55;;
53903;SDS011;39812;52.430;16.936;2023-09-18T05:42:00;19.77;;;14.00;;
53903;SDS011;39812;52.430;16.936;2023-09-18T05:44:25;23.23;;;14.70;;
53903;SDS011;39812;52.430;16.936;2023-09-18T05:46:51;22.20;;;14.50;;
53903;SDS011;39812;52.430;16.936;2023-09-18T05:49:17;23.17;;;13.70;;
53903;SDS011;39812;52.430;16.936;2023-09-18T05:51:42;20.10;;;13.57;;
53903;SDS011;39812;52.430;16.936;2023-09-18T05:54:08;20.45;;;13.93;;
53903;SDS011;39812;52.430;16.936;2023-09-18T05:56:34;19.00;;;13.63;;
53903;SDS011;39812;52.430;16.936;2023-09-18T05:59:00;18.13;;;14.02;;
53903;SDS011;39812;52.430;16.936;2023-09-18T06:01:26;22.38;;;13.82;;
53903;SDS011;39812;52.430;16.936;2023-09-18T06:03:51;17.05;;;12.57;;
53903;SDS011;39812;52.430;16.936;2023-09-18T06:06:17;20.52;;;13.52;;
53903;SDS011;39812;52.430;16.936;2023-09-18T06:08:42;16.10;;;12.80;;
53903;SDS011;39812;52.430;16.936;2023-09-18T06:11:08;21.02;;;13.52;;
53903;SDS011;39812;52.430;16.936;2023-09-18T06:13:33;19.55;;;13.00;;
53903;SDS011;39812;52.430;16.936;2023-09-18T06:15:59;17.08;;;11.77;;
53903;SDS011;39812;52.430;16.936;2023-09-18T06:18:30;20.15;;;12.52;;
53903;SDS011;39812;52.430;16.936;2023-09-18T06:20:56;14.80;;;11.35;;
53903;SDS011;39812;52.430;16.936;2023-09-18T06:23:21;15.77;;;11.35;;
53903;SDS011;39812;52.430;16.936;2023-09-18T06:25:47;16.73;;;12.00;;
53903;SDS011;39812;52.430;16.936;2023-09-18T06:28:20;17.58;;;12.05;;
53903;SDS011;39812;52.430;16.936;2023-09-18T06:30:45;14.43;;;11.45;;
53903;SDS011;39812;52.430;16.936;2023-09-18T06:33:11;19.85;;;13.00;;
53903;SDS011;39812;52.430;16.936;2023-09-18T06:35:37;13.70;;;9.93;;
53903;SDS011;39812;52.430;16.936;2023-09-18T06:38:03;16.80;;;10.50;;
53903;SDS011;39812;52.430;16.936;2023-09-18T06:40:31;15.75;;;10.40;;
53903;SDS011;39812;52.430;16.936;2023-09-18T06:42:59;15.48;;;11.15;;
53903;SDS011;39812;52.430;16.936;2023-09-18T06:45:25;17.27;;;11.50;;
53903;SDS011;39812;52.430;16.936;2023-09-18T06:47:51;15.80;;;11.57;;
53903;SDS011;39812;52.430;16.936;2023-09-18T06:50:18;14.40;;;10.30;;
53903;SDS011;39812;52.430;16.936;2023-09-18T06:52:43;18.50;;;9.85;;
53903;SDS011;39812;52.430;16.936;2023-09-18T06:55:09;13.20;;;9.73;;
53903;SDS011;39812;52.430;16.936;2023-09-18T06:57:35;12.55;;;10.13;;
53903;SDS011;39812;52.430;16.936;2023-09-18T07:00:01;14.32;;;10.13;;
53903;SDS011;39812;52.430;16.936;2023-09-18T07:02:27;13.57;;;10.15;;
53903;SDS011;39812;52.430;16.936;2023-09-18T07:04:55;15.75;;;10.00;;
53903;SDS011;39812;52.430;16.936;2023-09-18T07:07:21;11.95;;;8.57;;
53903;SDS011;39812;52.430;16.936;2023-09-18T07:09:50;12.13;;;9.88;;
53903;SDS011;39812;52.430;16.936;2023-09-18T07:12:16;13.18;;;9.30;;
53903;SDS011;39812;52.430;16.936;2023-09-18T07:14:44;14.38;;;9.02;;
53903;SDS011;39812;52.430;16.936;2023-09-18T07:17:10;14.73;;;9.43;;
53903;SDS011;39812;52.430;16.936;2023-09-18T07:19:36;12.75;;;8.63;;
53903;SDS011;39812;52.430;16.936;2023-09-18T07:22:02;12.73;;;8.77;;
53903;SDS011;39812;52.430;16.936;2023-09-18T07:24:27;11.85;;;7.97;;
53903;SDS011;39812;52.430;16.936;2023-09-18T07:26:53;12.95;;;8.70;;
53903;SDS011;39812;52.430;16.936;2023-09-18T07:29:20;16.27;;;9.52;;
53903;SDS011;39812;52.430;16.936;2023-09-18T07:31:45;14.45;;;9.07;;
53903;SDS011;39812;52.430;16.936;2023-09-18T07:34:12;12.82;;;8.80;;
53903;SDS011;39812;52.430;16.936;2023-09-18T07:36:38;12.07;;;8.50;;
53903;SDS011;39812;52.430;16.936;2023-09-18T07:39:05;10.00;;;7.55;;
53903;SDS011;39812;52.430;16.936;2023-09-18T07:41:34;11.40;;;8.38;;
53903;SDS011;39812;52.430;16.936;2023-09-18T07:43:59;11.30;;;8.30;;
53903;SDS011;39812;52.430;16.936;2023-09-18T07:46:25;14.02;;;9.15;;
53903;SDS011;39812;52.430;16.936;2023-09-18T07:48:51;10.75;;;8.05;;
53903;SDS011;39812;52.430;16.936;2023-09-18T07:51:16;9.13;;;7.38;;
53903;SDS011;39812;52.430;16.936;2023-09-18T07:53:42;9.95;;;6.95;;
53903;SDS011;39812;52.430;16.936;2023-09-18T07:56:09;10.10;;;7.18;;
53903;SDS011;39812;52.430;16.936;2023-09-18T07:58:35;11.75;;;6.85;;
53903;SDS011;39812;52.430;16.936;2023-09-18T08:01:03;13.27;;;7.28;;
53903;SDS011;39812;52.430;16.936;2023-09-18T08:03:30;9.38;;;6.70;;
53903;SDS011;39812;52.430;16.936;2023-09-18T08:05:56;9.65;;;6.88;;
53903;SDS011;39812;52.430;16.936;2023-09-18T08:08:22;7.72;;;5.97;;
53903;SDS011;39812;52.430;16.936;2023-09-18T08:10:51;9.75;;;5.93;;
53903;SDS011;39812;52.430;16.936;2023-09-18T08:13:17;13.02;;;6.88;;
53903;SDS011;39812;52.430;16.936;2023-09-18T08:15:44;7.25;;;5.50;;
53903;SDS011;39812;52.430;16.936;2023-09-18T08:18:10;8.93;;;5.93;;
53903;SDS011;39812;52.430;16.936;2023-09-18T08:20:40;8.70;;;6.15;;
53903;SDS011;39812;52.430;16.936;2023-09-18T08:23:11;6.32;;;5.57;;
53903;SDS011;39812;52.430;16.936;2023-09-18T08:25:37;8.15;;;5.63;;
53903;SDS011;39812;52.430;16.936;2023-09-18T08:28:03;10.55;;;5.53;;
53903;SDS011;39812;52.430;16.936;2023-09-18T08:30:29;8.75;;;5.95;;
53903;SDS011;39812;52.430;16.936;2023-09-18T08:32:55;7.35;;;6.35;;
53903;SDS011;39812;52.430;16.936;2023-09-18T08:35:21;11.68;;;6.57;;
53903;SDS011;39812;52.430;16.936;2023-09-18T08:37:47;9.02;;;5.97;;
53903;SDS011;39812;52.430;16.936;2023-09-18T08:40:13;9.50;;;6.32;;
53903;SDS011;39812;52.430;16.936;2023-09-18T08:42:40;8.77;;;5.45;;
53903;SDS011;39812;52.430;16.936;2023-09-18T08:45:09;10.80;;;6.10;;
53903;SDS011;39812;52.430;16.936;2023-09-18T08:47:39;8.73;;;5.50;;
53903;SDS011;39812;52.430;16.936;2023-09-18T08:50:06;10.68;;;5.43;;
53903;SDS011;39812;52.430;16.936;2023-09-18T08:52:35;9.63;;;6.38;;
53903;SDS011;39812;52.430;16.936;2023-09-18T08:55:02;8.50;;;6.15;;
53903;SDS011;39812;52.430;16.936;2023-09-18T08:57:29;11.65;;;6.32;;
53903;SDS011;39812;52.430;16.936;2023-09-18T08:59:57;8.07;;;5.53;;
53903;SDS011;39812;52.430;16.936;2023-09-18T09:02:23;9.43;;;5.85;;
53903;SDS011;39812;52.430;16.936;2023-09-18T09:04:49;7.85;;;5.97;;
53903;SDS011;39812;52.430;16.936;2023-09-18T09:07:15;8.35;;;5.68;;
53903;SDS011;39812;52.430;16.936;2023-09-18T09:09:41;8.90;;;5.07;;
53903;SDS011;39812;52.430;16.936;2023-09-18T09:12:07;8.13;;;5.43;;
53903;SDS011;39812;52.430;16.936;2023-09-18T09:14:33;6.32;;;5.22;;
53903;SDS011;39812;52.430;16.936;2023-09-18T09:16:59;7.78;;;5.53;;
53903;SDS011;39812;52.430;16.936;2023-09-18T09:19:28;7.72;;;5.40;;
53903;SDS011;39812;52.430;16.936;2023-09-18T09:21:55;9.02;;;6.20;;
53903;SDS011;39812;52.430;16.936;2023-09-18T09:24:42;8.82;;;5.45;;
53903;SDS011;39812;52.430;16.936;2023-09-18T09:27:09;7.07;;;5.35;;
53903;SDS011;39812;52.430;16.936;2023-09-18T09:29:35;10.25;;;5.25;;
53903;SDS011;39812;52.430;16.936;2023-09-18T09:32:17;9.40;;;5.47;;
53903;SDS011;39812;52.430;16.936;2023-09-18T09:34:44;7.30;;;4.78;;
53903;SDS011;39812;52.430;16.936;2023-09-18T09:37:11;6.45;;;5.20;;
53903;SDS011;39812;52.430;16.936;2023-09-18T09:40:02;7.95;;;5.15;;
53903;SDS011;39812;52.430;16.936;2023-09-18T09:42:37;7.43;;;5.25;;
53903;SDS011;39812;52.430;16.936;2023-09-18T09:45:04;8.13;;;5.25;;
53903;SDS011;39812;52.430;16.936;2023-09-18T09:47:37;7.95;;;5.55;;
53903;SDS011;39812;52.430;16.936;2023-09-18T09:50:21;8.20;;;5.35;;
53903;SDS011;39812;52.430;16.936;2023-09-18T09:52:47;7.68;;;5.05;;
53903;SDS011;39812;52.430;16.936;2023-09-18T09:57:52;7.45;;;5.80;;
53903;SDS011;39812;52.430;16.936;2023-09-18T10:00:22;9.27;;;5.43;;
53903;SDS011;39812;52.430;16.936;2023-09-18T10:03:01;7.90;;;5.28;;
53903;SDS011;39812;52.430;16.936;2023-09-18T10:05:30;7.57;;;5.50;;
53903;SDS011;39812;52.430;16.936;2023-09-18T10:07:58;6.63;;;4.78;;
53903;SDS011;39812;52.430;16.936;2023-09-18T10:10:29;6.68;;;5.30;;
53903;SDS011;39812;52.430;16.936;2023-09-18T10:13:00;6.75;;;5.25;;
53903;SDS011;39812;52.430;16.936;2023-09-18T10:15:31;7.57;;;5.30;;
53903;SDS011;39812;52.430;16.936;2023-09-18T10:17:58;7.15;;;4.90;;
53903;SDS011;39812;52.430;16.936;2023-09-18T10:20:27;6.90;;;4.82;;
53903;SDS011;39812;52.430;16.936;2023-09-18T10:22:56;10.25;;;5.15;;
53903;SDS011;39812;52.430;16.936;2023-09-18T10:25:24;7.50;;;5.20;;
53903;SDS011;39812;52.430;16.936;2023-09-18T10:27:53;7.18;;;4.78;;
53903;SDS011;39812;52.430;16.936;2023-09-18T10:30:28;9.05;;;4.85;;
53903;SDS011;39812;52.430;16.936;2023-09-18T10:32:57;8.32;;;4.88;;
53903;SDS011;39812;52.430;16.936;2023-09-18T10:35:24;7.18;;;5.03;;
53903;SDS011;39812;52.430;16.936;2023-09-18T10:37:50;6.53;;;4.88;;
53903;SDS011;39812;52.430;16.936;2023-09-18T10:40:20;4.93;;;4.43;;
53903;SDS011;39812;52.430;16.936;2023-09-18T10:42:46;6.22;;;4.43;;
53903;SDS011;39812;52.430;16.936;2023-09-18T10:45:15;5.47;;;4.22;;
53903;SDS011;39812;52.430;16.936;2023-09-18T10:47:42;6.78;;;4.65;;
53903;SDS011;39812;52.430;16.936;2023-09-18T10:50:11;6.00;;;4.90;;
53903;SDS011;39812;52.430;16.936;2023-09-18T10:52:43;9.20;;;4.80;;
53903;SDS011;39812;52.430;16.936;2023-09-18T10:55:12;9.23;;;4.88;;
53903;SDS011;39812;52.430;16.936;2023-09-18T10:57:51;7.68;;;4.57;;
53903;SDS011;39812;52.430;16.936;2023-09-18T11:00:22;5.22;;;4.25;;
53903;SDS011;39812;52.430;16.936;2023-09-18T11:02:53;5.60;;;4.60;;
53903;SDS011;39812;52.430;16.936;2023-09-18T11:05:34;6.75;;;4.50;;
53903;SDS011;39812;52.430;16.936;2023-09-18T11:11:01;7.13;;;4.47;;
53903;SDS011;39812;52.430;16.936;2023-09-18T11:13:44;6.03;;;4.43;;
53903;SDS011;39812;52.430;16.936;2023-09-18T11:19:16;7.93;;;4.75;;
53903;SDS011;39812;52.430;16.936;2023-09-18T11:21:42;6.95;;;3.90;;
53903;SDS011;39812;52.430;16.936;2023-09-18T11:24:14;4.60;;;3.72;;
53903;SDS011;39812;52.430;16.936;2023-09-18T11:26:46;5.75;;;4.40;;
53903;SDS011;39812;52.430;16.936;2023-09-18T11:29:14;6.10;;;4.18;;
53903;SDS011;39812;52.430;16.936;2023-09-18T11:31:53;5.80;;;3.72;;
53903;SDS011;39812;52.430;16.936;2023-09-18T11:34:26;6.72;;;4.18;;
53903;SDS011;39812;52.430;16.936;2023-09-18T11:37:00;5.85;;;4.03;;
53903;SDS011;39812;52.430;16.936;2023-09-18T11:39:43;5.75;;;4.20;;
53903;SDS011;39812;52.430;16.936;2023-09-18T11:42:28;5.88;;;4.00;;
53903;SDS011;39812;52.430;16.936;2023-09-18T11:44:54;4.88;;;3.92;;
53903;SDS011;39812;52.430;16.936;2023-09-18T11:47:23;6.43;;;4.05;;
53903;SDS011;39812;52.430;16.936;2023-09-18T11:49:54;7.15;;;3.75;;
53903;SDS011;39812;52.430;16.936;2023-09-18T11:54:52;6.55;;;4.22;;
53903;SDS011;39812;52.430;16.936;2023-09-18T11:57:20;7.07;;;3.90;;
53903;SDS011;39812;52.430;16.936;2023-09-18T11:59:46;9.73;;;4.45;;
53903;SDS011;39812;52.430;16.936;2023-09-18T12:02:33;5.45;;;3.72;;
53903;SDS011;39812;52.430;16.936;2023-09-18T12:05:11;6.82;;;3.47;;
53903;SDS011;39812;52.430;16.936;2023-09-18T12:07:44;5.85;;;3.40;;
53903;SDS011;39812;52.430;16.936;2023-09-18T12:10:14;5.05;;;3.33;;
53903;SDS011;39812;52.430;16.936;2023-09-18T12:12:42;6.07;;;3.40;;
53903;SDS011;39812;52.430;16.936;2023-09-18T12:15:12;3.95;;;2.97;;
53903;SDS011;39812;52.430;16.936;2023-09-18T12:17:38;6.15;;;3.25;;
53903;SDS011;39812;52.430;16.936;2023-09-18T12:20:04;3.97;;;3.22;;
53903;SDS011;39812;52.430;16.936;2023-09-18T12:22:31;5.22;;;3.13;;
53903;SDS011;39812;52.430;16.936;2023-09-18T12:25:12;6.05;;;3.00;;
53903;SDS011;39812;52.430;16.936;2023-09-18T12:27:43;4.22;;;2.97;;
53903;SDS011;39812;52.430;16.936;2023-09-18T12:30:09;4.75;;;3.10;;
53903;SDS011;39812;52.430;16.936;2023-09-18T12:32:36;4.28;;;3.20;;
53903;SDS011;39812;52.430;16.936;2023-09-18T12:35:03;6.35;;;3.00;;
53903;SDS011;39812;52.430;16.936;2023-09-18T12:37:31;4.15;;;3.20;;
53903;SDS011;39812;52.430;16.936;2023-09-18T12:39:57;3.90;;;2.88;;
53903;SDS011;39812;52.430;16.936;2023-09-18T12:42:23;9.10;;;3.58;;
53903;SDS011;39812;52.430;16.936;2023-09-18T12:44:49;13.05;;;3.72;;
53903;SDS011;39812;52.430;16.936;2023-09-18T12:47:16;4.53;;;3.10;;
53903;SDS011;39812;52.430;16.936;2023-09-18T12:49:41;7.75;;;3.50;;
53903;SDS011;39812;52.430;16.936;2023-09-18T12:52:07;4.03;;;2.90;;
53903;SDS011;39812;52.430;16.936;2023-09-18T12:54:36;6.93;;;3.15;;
53903;SDS011;39812;52.430;16.936;2023-09-18T12:57:07;5.63;;;2.97;;
53903;SDS011;39812;52.430;16.936;2023-09-18T12:59:34;4.28;;;3.10;;
53903;SDS011;39812;52.430;16.936;2023-09-18T13:02:04;3.85;;;3.35;;
53903;SDS011;39812;52.430;16.936;2023-09-18T13:04:33;5.50;;;3.20;;
53903;SDS011;39812;52.430;16.936;2023-09-18T13:07:11;4.88;;;3.00;;
53903;SDS011;39812;52.430;16.936;2023-09-18T13:09:39;4.97;;;3.05;;
53903;SDS011;39812;52.430;16.936;2023-09-18T13:12:05;4.05;;;3.63;;
53903;SDS011;39812;52.430;16.936;2023-09-18T13:17:40;5.82;;;3.90;;
53903;SDS011;39812;52.430;16.936;2023-09-18T13:20:21;8.55;;;4.13;;
53903;SDS011;39812;52.430;16.936;2023-09-18T13:22:54;6.38;;;3.78;;
53903;SDS011;39812;52.430;16.936;2023-09-18T13:25:22;7.00;;;3.92;;
53903;SDS011;39812;52.430;16.936;2023-09-18T13:27:50;6.03;;;3.50;;
53903;SDS011;39812;52.430;16.936;2023-09-18T13:30:17;5.38;;;4.00;;
53903;SDS011;39812;52.430;16.936;2023-09-18T13:32:45;8.90;;;4.57;;
53903;SDS011;39812;52.430;16.936;2023-09-18T13:35:17;5.38;;;4.07;;
53903;SDS011;39812;52.430;16.936;2023-09-18T13:37:44;7.28;;;4.15;;
53903;SDS011;39812;52.430;16.936;2023-09-18T13:40:10;8.48;;;4.35;;
53903;SDS011;39812;52.430;16.936;2023-09-18T13:42:39;5.88;;;4.00;;
53903;SDS011;39812;52.430;16.936;2023-09-18T13:45:05;10.18;;;4.50;;
53903;SDS011;39812;52.430;16.936;2023-09-18T13:47:32;7.63;;;4.85;;
53903;SDS011;39812;52.430;16.936;2023-09-18T13:49:59;7.93;;;4.72;;
53903;SDS011;39812;52.430;16.936;2023-09-18T13:52:26;6.80;;;4.35;;
53903;SDS011;39812;52.430;16.936;2023-09-18T13:54:52;9.50;;;4.78;;
53903;SDS011;39812;52.430;16.936;2023-09-18T13:57:18;7.93;;;4.95;;
53903;SDS011;39812;52.430;16.936;2023-09-18T13:59:45;8.43;;;4.70;;
53903;SDS011;39812;52.430;16.936;2023-09-18T14:02:11;5.88;;;4.47;;
53903;SDS011;39812;52.430;16.936;2023-09-18T14:04:37;6.97;;;4.40;;
53903;SDS011;39812;52.430;16.936;2023-09-18T14:07:03;8.98;;;4.70;;
53903;SDS011;39812;52.430;16.936;2023-09-18T14:09:33;6.00;;;4.85;;
53903;SDS011;39812;52.430;16.936;2023-09-18T14:11:58;5.68;;;4.85;;
53903;SDS011;39812;52.430;16.936;2023-09-18T14:14:24;12.93;;;5.68;;
53903;SDS011;39812;52.430;16.936;2023-09-18T14:16:50;8.75;;;5.30;;
53903;SDS011;39812;52.430;16.936;2023-09-18T14:19:16;6.40;;;5.15;;
53903;SDS011;39812;52.430;16.936;2023-09-18T14:21:42;6.82;;;5.72;;
53903;SDS011;39812;52.430;16.936;2023-09-18T14:24:08;7.20;;;5.95;;
53903;SDS011;39812;52.430;16.936;2023-09-18T14:26:35;8.30;;;5.93;;
53903;SDS011;39812;52.430;16.936;2023-09-18T14:29:07;8.43;;;5.40;;
53903;SDS011;39812;52.430;16.936;2023-09-18T14:31:33;10.38;;;5.47;;
53903;SDS011;39812;52.430;16.936;2023-09-18T14:34:01;8.65;;;5.55;;
53903;SDS011;39812;52.430;16.936;2023-09-18T14:36:27;8.63;;;5.13;;
53903;SDS011;39812;52.430;16.936;2023-09-18T14:38:52;12.52;;;5.57;;